createdAt,value
2023-11-29T06:32:44.299Z,101850.19
2023-11-29T06:37:56.890Z,101880.88
2023-11-29T06:43:03.879Z,101892.50
2023-11-29T06:48:09.627Z,101873.94
2023-11-29T06:53:12.888Z,101894.75
2023-11-29T06:58:21.751Z,101898.44
2023-11-29T07:03:27.907Z,101887.69
2023-11-29T07:08:32.816Z,101892.84
2023-11-29T07:13:36.392Z,101894.28
2023-11-29T07:18:39.429Z,101868.09
2023-11-29T07:23:42.439Z,101885.25
2023-11-29T07:28:46.620Z,101878.78
2023-11-29T07:33:49.476Z,101876.47
2023-11-29T07:38:52.485Z,101856.53
2023-11-29T07:43:55.305Z,101847.25
2023-11-29T07:49:00.251Z,101847.91
2023-11-29T07:54:04.696Z,101841.59
2023-11-29T07:59:07.464Z,101833.56
2023-11-29T08:04:10.358Z,101828.50
2023-11-29T08:09:13.777Z,101823.38
2023-11-29T08:14:16.530Z,101816.59
2023-11-29T08:19:19.263Z,101810.53
2023-11-29T08:24:22.025Z,101809.03
2023-11-29T08:29:24.789Z,101811.34
2023-11-29T08:34:27.575Z,101806.13
2023-11-29T08:39:30.398Z,101801.63
2023-11-29T08:44:36.063Z,101804.00
2023-11-29T08:49:38.962Z,101791.34
2023-11-29T08:54:41.850Z,101779.38
2023-11-29T08:59:45.279Z,101781.78
2023-11-29T09:04:48.115Z,101772.81
2023-11-29T09:09:50.886Z,101781.00
2023-11-29T09:14:57.535Z,101770.25
2023-11-29T09:20:01.517Z,101781.50
2023-11-29T09:25:07.503Z,101777.44
2023-11-29T09:30:11.677Z,101779.50
2023-11-29T09:35:14.535Z,101765.50
2023-11-29T09:40:17.643Z,101774.38
2023-11-29T09:45:26.954Z,101755.06
2023-11-29T09:50:29.833Z,101738.78
2023-11-29T09:55:34.057Z,101729.00
2023-11-29T10:00:37.582Z,101699.25
2023-11-29T10:05:48.789Z,101698.03
2023-11-29T10:10:54.754Z,101685.13
2023-11-29T10:15:57.502Z,101691.63
2023-11-29T10:21:07.052Z,101693.59
2023-11-29T10:26:12.617Z,101691.53
2023-11-29T10:31:16.634Z,101688.78
2023-11-29T10:36:22.981Z,101682.97
2023-11-29T10:41:29.420Z,101660.66
2023-11-29T10:46:36.111Z,101662.84
2023-11-29T10:51:40.386Z,101659.53
2023-11-29T10:56:44.537Z,101663.38
2023-11-29T11:01:48.338Z,101642.63
2023-11-29T11:06:51.257Z,101647.41
2023-11-29T11:11:54.075Z,101639.56
2023-11-29T11:17:04.925Z,101636.94
2023-11-29T11:22:13.117Z,101620.31
2023-11-29T11:27:16.819Z,101621.47
2023-11-29T11:32:49.642Z,101613.84
2023-11-29T11:37:59.938Z,101608.09
2023-11-29T11:43:03.430Z,101627.13
2023-11-29T11:48:07.766Z,101626.31
2023-11-29T11:53:10.749Z,101634.94
2023-11-29T11:58:15.990Z,101648.38
2023-11-29T12:03:18.596Z,101629.91
2023-11-29T12:08:21.465Z,101638.22
2023-11-29T12:13:24.183Z,101628.75
2023-11-29T12:18:27.024Z,101622.59
2023-11-29T12:23:30.662Z,101617.34
2023-11-29T12:28:34.265Z,101617.69
2023-11-29T12:33:38.893Z,101611.31
2023-11-29T12:38:41.961Z,101600.53
2023-11-29T12:43:44.652Z,101594.69
2023-11-29T12:48:47.473Z,101587.47
2023-11-29T12:53:50.339Z,101573.25
2023-11-29T12:58:53.176Z,101580.75
2023-11-29T13:03:56.651Z,101587.09
2023-11-29T13:09:00.292Z,101581.28
2023-11-29T13:14:03.741Z,101578.34
2023-11-29T13:19:06.480Z,101574.22
2023-11-29T13:24:09.339Z,101589.75
2023-11-29T13:29:12.095Z,101581.72
2023-11-29T13:34:14.821Z,101582.00
2023-11-29T13:39:17.446Z,101587.00
2023-11-29T13:44:21.084Z,101585.91
2023-11-29T13:49:24.007Z,101583.38
2023-11-29T13:54:26.882Z,101589.75
2023-11-29T13:59:29.677Z,101581.72
2023-11-29T14:04:32.602Z,101588.91
2023-11-29T14:09:36.842Z,101578.66
2023-11-29T14:14:39.744Z,101592.25
2023-11-29T14:19:42.520Z,101577.00
2023-11-29T14:24:45.200Z,101565.63
2023-11-29T14:29:47.924Z,101561.44
2023-11-29T14:34:50.598Z,101561.72
2023-11-29T14:39:53.354Z,101573.94
2023-11-29T14:44:57.063Z,101564.41
2023-11-29T14:50:00.245Z,101545.03
2023-11-29T14:55:03.694Z,101554.97
2023-11-29T15:00:07.356Z,101543.88
2023-11-29T15:05:11.543Z,101538.03
2023-11-29T15:10:14.237Z,101541.91
2023-11-29T15:15:17.054Z,101533.06
2023-11-29T15:20:19.750Z,101533.56
2023-11-29T15:25:22.614Z,101531.06
2023-11-29T15:30:25.464Z,101547.44
2023-11-29T15:35:29.015Z,101539.38
2023-11-29T15:40:34.420Z,101536.63
2023-11-29T15:45:37.211Z,101543.25
2023-11-29T15:50:39.957Z,101544.34
2023-11-29T15:55:42.728Z,101544.91
2023-11-29T16:00:45.458Z,101541.28
2023-11-29T16:05:50.787Z,101555.41
2023-11-29T16:10:53.285Z,101535.97
2023-11-29T16:15:55.980Z,101522.66
2023-11-29T16:20:58.769Z,101508.81
2023-11-29T16:26:02.790Z,101512.94
2023-11-29T16:31:06.355Z,101529.25
2023-11-29T16:36:09.565Z,101540.94
2023-11-29T16:41:12.436Z,101525.16
2023-11-29T16:46:16.098Z,101518.81
2023-11-29T16:51:19.597Z,101545.69
2023-11-29T16:56:22.270Z,101541.53
2023-11-29T17:01:27.254Z,101544.59
2023-11-29T17:06:30.150Z,101533.84
2023-11-29T17:11:32.959Z,101533.22
2023-11-29T17:16:35.648Z,101544.59
2023-11-29T17:21:38.815Z,101554.31
2023-11-29T17:26:43.682Z,101556.81
2023-11-29T17:31:46.425Z,101552.44
2023-11-29T17:36:49.886Z,101542.75
2023-11-29T17:41:55.529Z,101539.47
2023-11-29T17:46:58.463Z,101528.34
2023-11-29T17:52:01.219Z,101531.41
2023-11-29T17:57:04.183Z,101522.81
2023-11-29T18:02:09.714Z,101522.28
2023-11-29T18:07:12.411Z,101531.13
2023-11-29T18:12:15.254Z,101512.00
2023-11-29T18:17:18.019Z,101522.78
2023-11-29T18:22:20.826Z,101501.50
2023-11-29T18:27:23.525Z,101482.91
2023-11-29T18:32:26.621Z,101472.38
2023-11-29T18:37:29.419Z,101482.63
2023-11-29T18:42:32.790Z,101487.88
2023-11-29T18:47:35.620Z,101472.38
2023-11-29T18:52:38.415Z,101475.97
2023-11-29T18:57:43.457Z,101476.78
2023-11-29T19:02:46.695Z,101484.56
2023-11-29T19:07:49.586Z,101467.38
2023-11-29T19:12:52.257Z,101469.59
2023-11-29T19:17:55.177Z,101471.84
2023-11-29T19:22:57.853Z,101471.06
2023-11-29T19:28:00.688Z,101469.13
2023-11-29T19:33:03.533Z,101461.03
2023-11-29T19:38:06.370Z,101450.78
2023-11-29T19:43:09.256Z,101454.66
2023-11-29T19:48:12.028Z,101482.38
2023-11-29T19:53:14.740Z,101465.75
2023-11-29T19:58:23.824Z,101473.50
2023-11-29T20:03:33.112Z,101443.00
2023-11-29T20:08:35.863Z,101456.28
2023-11-29T20:13:38.984Z,101448.81
2023-11-29T20:18:43.117Z,101475.38
2023-11-29T20:23:46.180Z,101447.66
2023-11-29T20:28:49.109Z,101449.03
2023-11-29T20:33:52.444Z,101460.69
2023-11-29T20:38:55.607Z,101437.97
2023-11-29T20:43:58.344Z,101424.66
2023-11-29T20:49:01.027Z,101432.41
2023-11-29T20:54:03.960Z,101433.25
2023-11-29T20:59:06.907Z,101428.25
2023-11-29T21:04:11.904Z,101421.06
2023-11-29T21:09:15.995Z,101428.00
2023-11-29T21:14:18.724Z,101428.56
2023-11-29T21:19:21.872Z,101419.94
2023-11-29T21:24:24.684Z,101407.78
2023-11-29T21:29:27.415Z,101397.78
2023-11-29T21:34:30.241Z,101391.41
2023-11-29T21:39:32.901Z,101395.28
2023-11-29T21:44:35.965Z,101389.72
2023-11-29T21:49:38.854Z,101373.94
2023-11-29T21:54:41.662Z,101393.03
2023-11-29T21:59:47.424Z,101374.47
2023-11-29T22:04:51.132Z,101390.81
2023-11-29T22:09:53.779Z,101384.16
2023-11-29T22:14:56.648Z,101397.72
2023-11-29T22:19:59.583Z,101380.84
2023-11-29T22:25:02.513Z,101392.72
2023-11-29T22:30:07.754Z,101386.09
2023-11-29T22:35:10.839Z,101388.59
2023-11-29T22:40:13.575Z,101394.09
2023-11-29T22:45:16.301Z,101376.91
2023-11-29T22:50:18.925Z,101380.81
2023-11-29T22:55:21.676Z,101378.59
2023-11-29T23:00:24.503Z,101384.16
2023-11-29T23:05:27.174Z,101397.19
2023-11-29T23:10:29.844Z,101402.13
2023-11-29T23:15:32.710Z,101387.50
2023-11-29T23:20:35.401Z,101360.56
2023-11-29T23:25:38.074Z,101381.09
2023-11-29T23:30:40.800Z,101389.69
2023-11-29T23:35:43.771Z,101391.34
2023-11-29T23:40:46.435Z,101384.44
2023-11-29T23:45:49.048Z,101391.66
2023-11-29T23:50:51.682Z,101398.88
2023-11-29T23:55:54.381Z,101387.28
